createdAt,value
2018-10-03T00:00:07.227Z,6.50
2018-10-03T00:02:35.908Z,6.47
2018-10-03T00:05:04.543Z,6.43
2018-10-03T00:07:33.039Z,6.42
2018-10-03T00:10:01.674Z,6.42
2018-10-03T00:12:30.210Z,6.33
2018-10-03T00:14:58.956Z,6.43
2018-10-03T00:17:28.004Z,6.45
2018-10-03T00:19:56.486Z,6.47
2018-10-03T00:22:25.320Z,6.52
2018-10-03T00:24:54.060Z,6.56
2018-10-03T00:27:22.666Z,6.59
2018-10-03T00:29:51.166Z,6.61
2018-10-03T00:32:19.686Z,6.63
2018-10-03T00:34:48.328Z,6.62
2018-10-03T00:37:16.851Z,6.66
2018-10-03T00:39:45.630Z,6.66
2018-10-03T00:42:14.178Z,6.67
2018-10-03T00:44:42.887Z,6.67
2018-10-03T00:47:11.513Z,6.63
2018-10-03T00:49:40.052Z,6.54
2018-10-03T00:52:08.654Z,5.82
2018-10-03T00:54:37.170Z,6.41
2018-10-03T00:57:05.910Z,6.39
2018-10-03T00:59:34.538Z,6.37
2018-10-03T01:02:03.141Z,6.35
2018-10-03T01:04:31.664Z,6.31
2018-10-03T01:07:00.166Z,6.25
2018-10-03T01:09:28.778Z,6.25
2018-10-03T01:11:57.253Z,6.22
2018-10-03T01:14:25.878Z,6.17
2018-10-03T01:16:54.507Z,6.12
2018-10-03T01:19:23.235Z,6.03
2018-10-03T01:21:52.626Z,5.99
2018-10-03T01:24:21.241Z,5.97
2018-10-03T01:26:49.830Z,5.87
2018-10-03T01:29:18.324Z,5.91
2018-10-03T01:31:47.095Z,5.87
2018-10-03T01:34:15.594Z,5.85
2018-10-03T01:36:44.335Z,5.81
2018-10-03T01:39:12.907Z,5.63
2018-10-03T01:41:41.779Z,5.74
2018-10-03T01:44:10.318Z,5.72
2018-10-03T01:46:39.286Z,5.67
2018-10-03T01:49:08.182Z,5.34
2018-10-03T01:51:36.707Z,5.71
2018-10-03T01:54:05.439Z,5.71
2018-10-03T01:56:33.930Z,5.70
2018-10-03T01:59:02.694Z,5.63
2018-10-03T02:01:31.251Z,5.58
2018-10-03T02:03:59.762Z,5.56
2018-10-03T02:06:28.314Z,5.51
2018-10-03T02:08:56.833Z,5.47
2018-10-03T02:11:25.598Z,5.45
2018-10-03T02:13:54.162Z,5.41
2018-10-03T02:16:22.938Z,5.40
2018-10-03T02:18:51.579Z,5.37
2018-10-03T02:21:20.195Z,5.32
2018-10-03T02:23:48.804Z,5.29
2018-10-03T02:26:17.388Z,5.24
2018-10-03T02:28:46.277Z,5.27
2018-10-03T02:31:14.858Z,5.22
2018-10-03T02:33:43.579Z,5.24
2018-10-03T02:36:12.160Z,5.24
2018-10-03T02:38:40.858Z,5.22
2018-10-03T02:41:09.410Z,5.21
2018-10-03T02:43:37.899Z,5.18
2018-10-03T02:46:06.800Z,5.14
2018-10-03T02:48:35.306Z,5.18
2018-10-03T02:51:04.133Z,5.16
2018-10-03T02:53:32.678Z,5.15
2018-10-03T02:56:01.372Z,5.10
2018-10-03T02:58:29.916Z,5.11
2018-10-03T03:00:59.239Z,5.07
2018-10-03T03:03:27.792Z,5.07
2018-10-03T03:05:56.300Z,5.07
2018-10-03T03:08:25.139Z,4.54
2018-10-03T03:10:53.719Z,5.03
2018-10-03T03:13:22.447Z,5.02
2018-10-03T03:15:51.011Z,5.02
2018-10-03T03:18:19.520Z,4.98
2018-10-03T03:20:47.990Z,4.98
2018-10-03T03:23:16.598Z,4.96
2018-10-03T03:25:45.319Z,4.93
2018-10-03T03:28:13.822Z,4.88
2018-10-03T03:30:42.705Z,4.86
2018-10-03T03:33:11.272Z,4.79
2018-10-03T03:35:40.061Z,4.78
2018-10-03T03:38:08.626Z,4.78
2018-10-03T03:40:37.379Z,4.76
2018-10-03T03:43:05.876Z,4.77
2018-10-03T03:45:34.414Z,4.72
2018-10-03T03:48:03.090Z,4.39
2018-10-03T03:50:31.550Z,4.67
2018-10-03T03:53:02.294Z,4.66
2018-10-03T03:55:30.824Z,4.63
2018-10-03T03:57:59.546Z,3.90
2018-10-03T04:00:28.111Z,4.62
2018-10-03T04:02:56.658Z,4.61
2018-10-03T04:05:25.136Z,4.56
2018-10-03T04:07:53.743Z,4.55
2018-10-03T04:10:22.407Z,4.51
2018-10-03T04:12:51.206Z,4.49
2018-10-03T04:15:20.094Z,3.92
2018-10-03T04:17:48.739Z,4.50
2018-10-03T04:20:17.317Z,4.48
2018-10-03T04:22:45.899Z,4.49
2018-10-03T04:25:14.611Z,4.51
2018-10-03T04:27:43.269Z,4.53
2018-10-03T04:30:11.839Z,4.53
2018-10-03T04:32:40.389Z,4.51
2018-10-03T04:35:09.002Z,4.54
2018-10-03T04:37:37.630Z,4.53
2018-10-03T04:40:06.210Z,4.53
2018-10-03T04:42:34.767Z,4.54
2018-10-03T04:45:03.458Z,4.63
2018-10-03T04:47:32.342Z,4.69
2018-10-03T04:50:01.115Z,4.70
2018-10-03T04:52:29.629Z,4.80
2018-10-03T04:54:58.462Z,4.85
2018-10-03T04:57:26.976Z,4.87
2018-10-03T04:59:55.606Z,4.90
2018-10-03T05:02:24.350Z,4.92
2018-10-03T05:04:52.858Z,4.97
2018-10-03T05:07:21.386Z,5.00
2018-10-03T05:09:49.843Z,5.02
2018-10-03T05:12:18.578Z,5.03
2018-10-03T05:14:47.131Z,5.07
2018-10-03T05:17:15.804Z,5.05
2018-10-03T05:19:44.335Z,5.10
2018-10-03T05:22:13.081Z,5.12
2018-10-03T05:24:41.631Z,5.16
2018-10-03T05:27:11.228Z,5.14
2018-10-03T05:29:39.898Z,5.07
2018-10-03T05:32:08.375Z,5.05
2018-10-03T05:34:37.214Z,5.02
2018-10-03T05:37:05.746Z,5.00
2018-10-03T05:39:34.399Z,4.99
2018-10-03T05:42:02.941Z,4.99
2018-10-03T05:44:31.441Z,5.01
2018-10-03T05:47:00.279Z,4.96
2018-10-03T05:49:28.860Z,4.99
2018-10-03T05:51:57.574Z,4.99
2018-10-03T05:54:26.062Z,5.04
2018-10-03T05:56:54.776Z,5.03
2018-10-03T05:59:23.334Z,5.06
2018-10-03T06:01:52.126Z,5.08
2018-10-03T06:04:20.658Z,5.10
2018-10-03T06:06:49.217Z,5.12
2018-10-03T06:09:18.034Z,5.15
2018-10-03T06:11:47.630Z,5.23
2018-10-03T06:14:16.354Z,5.25
2018-10-03T06:16:44.834Z,5.29
2018-10-03T06:19:13.536Z,4.70
2018-10-03T06:21:42.195Z,5.38
2018-10-03T06:24:10.792Z,5.46
2018-10-03T06:26:39.271Z,5.51
2018-10-03T06:29:07.962Z,5.55
2018-10-03T06:31:36.730Z,5.30
2018-10-03T06:34:05.223Z,5.59
2018-10-03T06:36:33.964Z,5.21
2018-10-03T06:39:02.674Z,5.69
2018-10-03T06:41:31.174Z,5.74
2018-10-03T06:44:00.754Z,5.75
2018-10-03T06:46:29.281Z,5.78
2018-10-03T06:48:57.766Z,5.79
2018-10-03T06:51:26.399Z,5.85
2018-10-03T06:53:55.087Z,5.91
2018-10-03T06:56:23.583Z,5.97
2018-10-03T06:58:52.430Z,5.64
2018-10-03T07:01:20.974Z,6.03
2018-10-03T07:03:49.582Z,6.04
2018-10-03T07:06:18.195Z,6.08
2018-10-03T07:08:46.767Z,6.14
2018-10-03T07:11:15.615Z,6.08
2018-10-03T07:13:44.116Z,6.21
2018-10-03T07:16:13.353Z,5.52
2018-10-03T07:18:41.826Z,6.25
2018-10-03T07:21:10.590Z,6.30
2018-10-03T07:23:39.080Z,6.37
2018-10-03T07:26:08.238Z,6.41
2018-10-03T07:28:36.884Z,6.47
2018-10-03T07:31:05.430Z,6.52
2018-10-03T07:33:34.253Z,6.54
2018-10-03T07:36:02.785Z,6.58
2018-10-03T07:38:31.613Z,6.61
2018-10-03T07:41:00.192Z,6.69
2018-10-03T07:43:28.820Z,6.70
2018-10-03T07:45:57.569Z,6.76
2018-10-03T07:48:26.559Z,6.82
2018-10-03T07:50:55.318Z,6.87
2018-10-03T07:53:23.863Z,6.84
2018-10-03T07:55:52.594Z,6.59
2018-10-03T07:58:21.235Z,6.91
2018-10-03T08:00:49.949Z,6.94
2018-10-03T08:03:18.523Z,6.99
2018-10-03T08:05:47.136Z,7.00
2018-10-03T08:08:16.334Z,7.09
2018-10-03T08:10:45.011Z,7.15
2018-10-03T08:13:13.705Z,7.18
2018-10-03T08:15:42.234Z,7.15
2018-10-03T08:18:11.220Z,6.79
2018-10-03T08:20:39.767Z,7.16
2018-10-03T08:23:08.568Z,7.24
2018-10-03T08:25:37.230Z,7.25
2018-10-03T08:28:05.856Z,7.28
2018-10-03T08:30:34.402Z,7.33
2018-10-03T08:33:02.950Z,7.29
2018-10-03T08:35:32.080Z,6.98
2018-10-03T08:38:01.250Z,7.25
2018-10-03T08:40:30.586Z,6.95
2018-10-03T08:42:59.387Z,7.25
2018-10-03T08:45:28.483Z,7.27
2018-10-03T08:47:56.963Z,7.37
2018-10-03T08:50:25.561Z,7.44
2018-10-03T08:52:54.067Z,7.40
2018-10-03T08:55:22.623Z,7.55
2018-10-03T08:57:51.386Z,7.59
2018-10-03T09:00:20.031Z,7.70
2018-10-03T09:02:49.599Z,7.78
2018-10-03T09:05:18.198Z,7.86
2018-10-03T09:07:47.206Z,7.93
2018-10-03T09:10:15.749Z,7.99
2018-10-03T09:12:44.310Z,8.00
2018-10-03T09:15:13.522Z,8.04
2018-10-03T09:17:42.038Z,8.14
2018-10-03T09:20:12.339Z,7.71
2018-10-03T09:22:40.822Z,8.18
2018-10-03T09:25:10.326Z,8.18
2018-10-03T09:27:38.826Z,8.35
2018-10-03T09:30:08.197Z,8.10
2018-10-03T09:32:36.780Z,8.46
2018-10-03T09:35:06.396Z,8.54
2018-10-03T09:37:37.071Z,8.60
2018-10-03T09:40:06.224Z,8.41
2018-10-03T09:42:34.880Z,8.70
2018-10-03T09:45:03.779Z,8.73
2018-10-03T09:47:32.394Z,8.75
2018-10-03T09:50:01.292Z,8.82
2018-10-03T09:52:29.928Z,8.89
2018-10-03T09:54:58.473Z,8.94
2018-10-03T09:57:27.350Z,8.98
2018-10-03T09:59:56.006Z,9.00
2018-10-03T10:02:25.505Z,9.05
2018-10-03T10:04:54.141Z,9.09
2018-10-03T10:07:23.111Z,9.11
2018-10-03T10:09:51.649Z,9.18
2018-10-03T10:12:20.557Z,9.27
2018-10-03T10:14:49.079Z,9.31
2018-10-03T10:17:17.650Z,9.38
2018-10-03T10:19:46.590Z,9.43
2018-10-03T10:22:15.258Z,9.48
2018-10-03T10:24:44.358Z,9.52
2018-10-03T10:27:12.929Z,9.58
2018-10-03T10:29:42.064Z,9.62
2018-10-03T10:32:10.625Z,9.65
2018-10-03T10:34:39.396Z,9.21
2018-10-03T10:37:07.942Z,9.74
2018-10-03T10:39:36.563Z,9.83
2018-10-03T10:42:05.114Z,9.81
2018-10-03T10:44:33.606Z,9.83
2018-10-03T10:47:02.780Z,9.91
2018-10-03T10:49:31.258Z,10.00
2018-10-03T10:52:00.295Z,9.97
2018-10-03T10:54:28.861Z,10.09
2018-10-03T10:56:58.666Z,10.16
2018-10-03T10:59:27.234Z,10.24
2018-10-03T11:01:55.818Z,10.29
2018-10-03T11:04:24.462Z,10.29
2018-10-03T11:06:53.106Z,10.32
2018-10-03T11:09:21.957Z,9.75
2018-10-03T11:11:50.490Z,10.38
2018-10-03T11:14:20.182Z,10.43
2018-10-03T11:16:48.764Z,10.46
2018-10-03T11:19:17.930Z,9.98
2018-10-03T11:21:46.418Z,10.48
2018-10-03T11:24:15.455Z,10.50
2018-10-03T11:26:44.390Z,10.48
2018-10-03T11:29:13.018Z,10.57
2018-10-03T11:31:42.394Z,10.59
2018-10-03T11:34:10.946Z,10.53
2018-10-03T11:36:39.951Z,10.39
2018-10-03T11:39:09.594Z,10.60
2018-10-03T11:41:39.196Z,10.72
2018-10-03T11:44:07.790Z,10.85
2018-10-03T11:46:37.122Z,10.99
2018-10-03T11:49:05.763Z,11.13
2018-10-03T11:51:35.158Z,11.19
2018-10-03T11:54:03.639Z,11.16
2018-10-03T11:56:32.290Z,11.26
2018-10-03T11:59:01.752Z,11.21
2018-10-03T12:01:30.513Z,11.29
2018-10-03T12:03:59.114Z,11.35
2018-10-03T12:06:27.719Z,11.35
2018-10-03T12:08:56.579Z,11.28
2018-10-03T12:11:25.118Z,11.36
2018-10-03T12:13:54.018Z,11.33
2018-10-03T12:16:22.515Z,11.36
2018-10-03T12:18:51.230Z,11.34
2018-10-03T12:21:19.755Z,11.31
2018-10-03T12:23:48.291Z,11.33
2018-10-03T12:26:17.443Z,11.17
2018-10-03T12:28:46.027Z,11.47
2018-10-03T12:31:15.019Z,11.53
2018-10-03T12:33:43.573Z,11.47
2018-10-03T12:36:12.537Z,11.56
2018-10-03T12:38:41.018Z,11.59
2018-10-03T12:41:09.686Z,11.58
2018-10-03T12:43:38.206Z,11.56
2018-10-03T12:46:07.666Z,11.52
2018-10-03T12:48:36.534Z,11.61
2018-10-03T12:51:05.058Z,11.61
2018-10-03T12:53:33.596Z,11.62
2018-10-03T12:56:02.182Z,11.60
2018-10-03T12:58:30.961Z,11.65
2018-10-03T13:00:59.489Z,11.57
2018-10-03T13:03:28.415Z,11.53
2018-10-03T13:05:57.071Z,11.54
2018-10-03T13:08:25.572Z,11.60
2018-10-03T13:10:54.754Z,11.64
2018-10-03T13:13:23.496Z,11.72
2018-10-03T13:15:52.772Z,11.71
2018-10-03T13:18:21.284Z,11.73
2018-10-03T13:20:50.051Z,11.80
2018-10-03T13:23:18.541Z,11.79
2018-10-03T13:25:47.190Z,11.81
2018-10-03T13:28:15.846Z,11.66
2018-10-03T13:30:44.449Z,11.81
2018-10-03T13:33:13.220Z,11.71
2018-10-03T13:35:41.762Z,11.74
2018-10-03T13:38:10.390Z,11.75
2018-10-03T13:40:38.994Z,11.80
2018-10-03T13:43:07.565Z,11.85
2018-10-03T13:45:36.131Z,11.79
2018-10-03T13:48:04.690Z,11.76
2018-10-03T13:50:33.380Z,11.41
2018-10-03T13:53:01.943Z,11.75
2018-10-03T13:55:30.832Z,11.79
2018-10-03T13:57:59.518Z,11.77
2018-10-03T14:00:28.477Z,11.80
2018-10-03T14:02:57.063Z,11.73
2018-10-03T14:05:25.631Z,11.75
2018-10-03T14:07:54.360Z,11.73
2018-10-03T14:10:22.943Z,11.73
2018-10-03T14:12:51.641Z,11.71
2018-10-03T14:15:20.128Z,11.68
2018-10-03T14:17:48.840Z,11.70
2018-10-03T14:20:17.423Z,11.67
2018-10-03T14:22:46.038Z,11.63
2018-10-03T14:25:14.686Z,11.55
2018-10-03T14:27:43.214Z,11.50
2018-10-03T14:30:12.121Z,11.53
2018-10-03T14:32:40.727Z,11.51
2018-10-03T14:35:09.696Z,11.19
2018-10-03T14:37:38.182Z,11.49
2018-10-03T14:40:06.740Z,11.54
2018-10-03T14:42:35.278Z,11.51
2018-10-03T14:45:04.202Z,11.47
2018-10-03T14:47:32.826Z,11.42
2018-10-03T14:50:01.312Z,11.38
2018-10-03T14:52:30.197Z,11.09
2018-10-03T14:54:58.678Z,11.40
2018-10-03T14:57:27.349Z,11.35
2018-10-03T14:59:55.993Z,11.37
2018-10-03T15:02:24.547Z,11.31
2018-10-03T15:04:53.142Z,11.33
2018-10-03T15:07:21.679Z,11.34
2018-10-03T15:09:50.678Z,11.30
2018-10-03T15:12:19.197Z,11.27
2018-10-03T15:14:47.943Z,11.22
2018-10-03T15:17:16.626Z,11.19
2018-10-03T15:19:45.255Z,11.15
2018-10-03T15:22:13.757Z,11.16
2018-10-03T15:24:42.282Z,11.11
2018-10-03T15:27:10.939Z,11.10
2018-10-03T15:29:39.456Z,11.04
2018-10-03T15:32:08.202Z,11.00
2018-10-03T15:34:36.674Z,11.01
2018-10-03T15:37:05.456Z,10.92
2018-10-03T15:39:33.974Z,10.89
2018-10-03T15:42:02.650Z,10.79
2018-10-03T15:44:31.278Z,10.80
2018-10-03T15:46:59.810Z,10.80
2018-10-03T15:49:28.615Z,10.76
2018-10-03T15:51:57.092Z,10.64
2018-10-03T15:54:26.031Z,10.64
2018-10-03T15:56:54.720Z,10.59
2018-10-03T15:59:23.296Z,10.56
2018-10-03T16:01:51.904Z,10.52
2018-10-03T16:04:20.386Z,10.45
2018-10-03T16:06:49.275Z,10.47
2018-10-03T16:09:17.810Z,10.47
2018-10-03T16:11:46.680Z,10.18
2018-10-03T16:14:15.253Z,10.47
2018-10-03T16:16:43.871Z,10.52
2018-10-03T16:19:12.527Z,10.52
2018-10-03T16:21:41.051Z,10.50
2018-10-03T16:24:09.674Z,9.91
2018-10-03T16:26:38.210Z,10.43
2018-10-03T16:29:06.986Z,10.32
2018-10-03T16:31:35.558Z,10.46
2018-10-03T16:34:04.348Z,9.98
2018-10-03T16:36:32.916Z,10.07
2018-10-03T16:39:01.567Z,10.30
2018-10-03T16:41:30.081Z,10.24
2018-10-03T16:43:58.572Z,10.23
2018-10-03T16:46:27.358Z,10.16
2018-10-03T16:48:55.872Z,10.13
2018-10-03T16:51:24.662Z,10.06
2018-10-03T16:53:53.238Z,9.97
2018-10-03T16:56:21.886Z,9.90
2018-10-03T16:58:50.393Z,9.83
2018-10-03T17:01:18.919Z,9.78
2018-10-03T17:03:48.406Z,9.81
2018-10-03T17:06:16.886Z,9.78
2018-10-03T17:08:45.824Z,9.73
2018-10-03T17:11:14.308Z,9.64
2018-10-03T17:13:54.121Z,9.53
2018-10-03T17:16:22.887Z,9.41
2018-10-03T17:18:51.378Z,9.33
2018-10-03T17:21:20.392Z,9.27
2018-10-03T17:23:48.940Z,9.16
2018-10-03T17:26:17.743Z,8.46
2018-10-03T17:28:46.318Z,9.07
2018-10-03T17:31:15.002Z,8.96
2018-10-03T17:33:43.575Z,8.96
2018-10-03T17:36:12.260Z,8.89
2018-10-03T17:38:40.854Z,8.65
2018-10-03T17:41:09.366Z,8.62
2018-10-03T17:43:38.919Z,8.51
2018-10-03T17:46:07.776Z,8.46
2018-10-03T17:48:36.651Z,8.37
2018-10-03T17:51:05.239Z,8.29
2018-10-03T17:53:33.754Z,8.18
2018-10-03T17:56:02.313Z,8.07
2018-10-03T17:58:30.914Z,7.97
2018-10-03T18:00:59.570Z,7.83
2018-10-03T18:03:28.266Z,7.82
2018-10-03T18:05:56.958Z,7.73
2018-10-03T18:08:25.554Z,7.66
2018-10-03T18:10:54.319Z,7.59
2018-10-03T18:13:22.916Z,7.52
2018-10-03T18:15:51.444Z,7.46
2018-10-03T18:18:20.010Z,7.42
2018-10-03T18:20:49.228Z,7.35
2018-10-03T18:23:18.272Z,6.55
2018-10-03T18:25:47.137Z,7.21
2018-10-03T18:28:15.974Z,6.66
2018-10-03T18:30:44.465Z,7.07
2018-10-03T18:33:13.162Z,7.02
2018-10-03T18:35:41.735Z,6.94
2018-10-03T18:38:10.322Z,6.90
2018-10-03T18:40:38.914Z,6.55
2018-10-03T18:43:07.449Z,6.78
2018-10-03T18:45:36.231Z,6.75
2018-10-03T18:48:04.911Z,6.72
2018-10-03T18:50:33.514Z,6.66
2018-10-03T18:53:02.092Z,6.61
2018-10-03T18:55:30.686Z,6.59
2018-10-03T18:57:59.302Z,6.53
2018-10-03T19:00:28.179Z,6.48
2018-10-03T19:02:57.266Z,5.99
2018-10-03T19:05:25.841Z,6.41
2018-10-03T19:07:54.735Z,6.36
2018-10-03T19:10:23.362Z,6.31
2018-10-03T19:12:52.414Z,6.27
2018-10-03T19:15:20.962Z,6.24
2018-10-03T19:17:49.506Z,6.22
2018-10-03T19:20:18.164Z,6.20
2018-10-03T19:22:46.724Z,6.19
2018-10-03T19:25:15.562Z,6.16
2018-10-03T19:27:44.055Z,6.12
2018-10-03T19:30:12.834Z,6.12
2018-10-03T19:32:41.366Z,6.08
2018-10-03T19:35:10.066Z,6.06
2018-10-03T19:37:38.679Z,6.07
2018-10-03T19:40:07.272Z,6.06
2018-10-03T19:42:36.166Z,5.76
2018-10-03T19:45:04.877Z,5.96
2018-10-03T19:47:33.760Z,6.01
2018-10-03T19:50:02.349Z,5.99
2018-10-03T19:52:31.276Z,6.00
2018-10-03T19:54:59.921Z,6.00
2018-10-03T19:57:28.481Z,6.01
2018-10-03T19:59:57.054Z,6.05
2018-10-03T20:02:25.691Z,6.08
2018-10-03T20:04:54.461Z,6.08
2018-10-03T20:07:23.874Z,6.08
2018-10-03T20:09:52.740Z,6.10
2018-10-03T20:12:21.332Z,6.17
2018-10-03T20:14:50.223Z,6.30
2018-10-03T20:17:19.214Z,6.40
2018-10-03T20:19:47.838Z,6.50
2018-10-03T20:22:16.398Z,6.88
2018-10-03T20:24:44.923Z,6.99
2018-10-03T20:27:13.766Z,6.78
2018-10-03T20:29:42.283Z,7.07
2018-10-03T20:32:11.182Z,7.08
2018-10-03T20:34:39.940Z,7.08
2018-10-03T20:37:08.497Z,7.03
2018-10-03T20:39:36.998Z,6.93
2018-10-03T20:42:05.690Z,6.82
2018-10-03T20:44:34.291Z,6.71
2018-10-03T20:47:02.823Z,6.60
2018-10-03T20:49:31.447Z,6.49
2018-10-03T20:52:00.012Z,6.38
2018-10-03T20:54:28.907Z,5.87
2018-10-03T20:56:57.406Z,6.19
2018-10-03T20:59:26.137Z,6.10
2018-10-03T21:01:54.938Z,5.84
2018-10-03T21:04:23.441Z,5.90
2018-10-03T21:06:52.014Z,5.81
2018-10-03T21:09:20.688Z,5.74
2018-10-03T21:11:49.323Z,5.66
2018-10-03T21:14:17.957Z,5.59
2018-10-03T21:16:46.606Z,5.53
2018-10-03T21:19:15.224Z,5.46
2018-10-03T21:21:43.754Z,5.40
2018-10-03T21:24:12.303Z,5.33
2018-10-03T21:26:40.887Z,5.27
2018-10-03T21:29:09.658Z,5.15
2018-10-03T21:31:38.241Z,5.19
2018-10-03T21:34:07.187Z,5.16
2018-10-03T21:36:35.814Z,5.16
2018-10-03T21:39:05.829Z,5.14
2018-10-03T21:41:34.310Z,5.09
2018-10-03T21:44:02.924Z,5.05
2018-10-03T21:46:31.534Z,5.02
2018-10-03T21:49:00.122Z,4.98
2018-10-03T21:51:28.766Z,4.95
2018-10-03T21:53:57.286Z,4.92
2018-10-03T21:56:25.982Z,4.88
2018-10-03T21:58:54.479Z,4.83
2018-10-03T22:01:23.336Z,4.78
2018-10-03T22:03:51.873Z,4.74
2018-10-03T22:06:20.374Z,4.70
2018-10-03T22:08:49.030Z,4.68
2018-10-03T22:11:17.626Z,4.64
2018-10-03T22:13:46.330Z,4.61
2018-10-03T22:16:14.930Z,4.58
2018-10-03T22:18:43.610Z,3.95
2018-10-03T22:21:12.150Z,4.53
2018-10-03T22:23:40.766Z,4.50
2018-10-03T22:26:09.226Z,4.46
2018-10-03T22:28:37.719Z,4.43
2018-10-03T22:31:06.390Z,3.71
2018-10-03T22:33:34.961Z,4.39
2018-10-03T22:36:03.678Z,4.36
2018-10-03T22:38:32.226Z,4.31
2018-10-03T22:41:00.900Z,4.27
2018-10-03T22:43:29.374Z,4.22
2018-10-03T22:45:57.912Z,4.20
2018-10-03T22:48:26.650Z,4.11
2018-10-03T22:50:55.142Z,4.12
2018-10-03T22:53:23.834Z,4.09
2018-10-03T22:55:52.350Z,4.08
2018-10-03T22:58:21.066Z,4.03
2018-10-03T23:00:49.606Z,3.99
2018-10-03T23:03:18.102Z,3.98
2018-10-03T23:05:46.686Z,3.86
2018-10-03T23:08:15.336Z,3.92
2018-10-03T23:10:44.115Z,3.90
2018-10-03T23:13:12.643Z,3.81
2018-10-03T23:15:41.394Z,3.83
2018-10-03T23:18:10.052Z,3.81
2018-10-03T23:20:38.670Z,3.76
2018-10-03T23:23:07.332Z,3.72
2018-10-03T23:25:35.802Z,3.69
2018-10-03T23:28:04.498Z,3.67
2018-10-03T23:30:33.081Z,3.66
2018-10-03T23:33:01.762Z,3.64
2018-10-03T23:35:30.272Z,3.62
2018-10-03T23:37:58.791Z,3.61
2018-10-03T23:40:27.413Z,3.62
2018-10-03T23:42:55.880Z,3.59
2018-10-03T23:45:24.577Z,3.48
2018-10-03T23:47:53.098Z,3.57
2018-10-03T23:50:21.852Z,2.80
2018-10-03T23:52:50.431Z,3.49
2018-10-03T23:55:19.079Z,3.47
2018-10-03T23:57:47.558Z,3.43
